Local Weather
17097
page-template-default,page,page-id-17097,bridge-core-1.0.4,ajax_fade,page_not_loaded,,hide_top_bar_on_mobile_header,qode-child-theme-ver-1.0.0,qode-theme-ver-18.0.9,qode-theme-bridge,qode_header_in_grid,wpb-js-composer js-comp-ver-4.11.2.1,vc_responsive
 

LOCAL WEATHER

METAR & TAF for EGTK Oxford

Available data for EGTK from the past hour
OXFORD
Metar
EGTK 230750Z 25008KT 9999 FEW013 SCT049 15/13 Q1020

07:50 UTC

Wind: 250° 8kt

Visibility: 9999 m

Sky: FEW 1300 ft

Temp: 15 deg C / 59 deg F

Dewpoint: 13 deg C / 55.4 deg F

Pressure: 1020 hPa

TAF
TAF EGTK 230555Z 2306/2315 23008KT 9999 FEW020 PROB30 TEMPO 2306/2311 BKN012